createdAt,value
2023-03-29T00:00:14.104Z,-1.30
2023-03-29T00:03:03.970Z,-1.32
2023-03-29T00:05:35.107Z,-1.33
2023-03-29T00:08:04.377Z,-1.34
2023-03-29T00:10:32.736Z,-1.33
2023-03-29T00:13:02.062Z,-1.32
2023-03-29T00:15:29.760Z,-1.33
2023-03-29T00:17:58.143Z,-1.33
2023-03-29T00:20:26.004Z,-1.33
2023-03-29T00:22:53.695Z,-1.33
2023-03-29T00:25:21.334Z,-1.34
2023-03-29T00:27:49.219Z,-1.35
2023-03-29T00:30:17.492Z,-1.35
2023-03-29T00:32:45.991Z,-1.35
2023-03-29T00:35:13.699Z,-1.37
2023-03-29T00:37:41.436Z,-1.38
2023-03-29T00:40:11.716Z,-1.40
2023-03-29T00:42:39.342Z,-1.42
2023-03-29T00:45:10.056Z,-1.45
2023-03-29T00:47:41.735Z,-1.46
2023-03-29T00:50:29.698Z,-1.48
2023-03-29T00:53:07.191Z,-1.51
2023-03-29T00:55:47.603Z,-1.56
2023-03-29T00:58:20.276Z,-1.59
2023-03-29T01:00:52.976Z,-1.62
2023-03-29T01:03:27.436Z,-1.65
2023-03-29T01:06:06.122Z,-1.67
2023-03-29T01:08:41.915Z,-1.69
2023-03-29T01:11:22.174Z,-1.71
2023-03-29T01:14:00.149Z,-1.74
2023-03-29T01:16:29.059Z,-1.76
2023-03-29T01:19:00.429Z,-1.77
2023-03-29T01:21:37.893Z,-1.77
2023-03-29T01:24:25.304Z,-1.78
2023-03-29T01:27:13.965Z,-1.79
2023-03-29T01:29:51.639Z,-1.82
2023-03-29T01:32:25.056Z,-1.83
2023-03-29T01:34:58.723Z,-1.84
2023-03-29T01:37:29.281Z,-1.85
2023-03-29T01:39:56.926Z,-1.84
2023-03-29T01:42:48.615Z,-1.83
2023-03-29T01:45:58.419Z,-1.84
2023-03-29T01:48:32.290Z,-1.90
2023-03-29T01:51:05.726Z,-1.92
2023-03-29T01:53:40.960Z,-1.92
2023-03-29T01:56:12.476Z,-1.94
2023-03-29T01:58:44.706Z,-1.97
2023-03-29T02:01:17.633Z,-2.01
2023-03-29T02:03:49.881Z,-2.04
2023-03-29T02:06:20.620Z,-2.08
2023-03-29T02:08:48.919Z,-2.09
2023-03-29T02:11:17.326Z,-2.11
2023-03-29T02:13:44.940Z,-2.14
2023-03-29T02:16:13.968Z,-2.16
2023-03-29T02:18:44.472Z,-2.17
2023-03-29T02:21:28.170Z,-2.19
2023-03-29T02:23:58.970Z,-2.21
2023-03-29T02:26:27.860Z,-2.24
2023-03-29T02:28:56.062Z,-2.28
2023-03-29T02:31:37.171Z,-2.28
2023-03-29T02:34:19.844Z,-2.30
2023-03-29T02:36:54.661Z,-2.32
2023-03-29T02:39:24.372Z,-2.33
2023-03-29T02:41:53.711Z,-2.33
2023-03-29T02:44:24.652Z,-2.33
2023-03-29T02:46:56.341Z,-2.34
2023-03-29T02:49:24.643Z,-2.34
2023-03-29T02:51:54.428Z,-2.34
2023-03-29T02:54:25.968Z,-2.34
2023-03-29T02:56:58.658Z,-2.33
2023-03-29T02:59:27.292Z,-2.34
2023-03-29T03:01:54.995Z,-2.35
2023-03-29T03:04:23.575Z,-2.36
2023-03-29T03:06:51.220Z,-2.36
2023-03-29T03:09:19.179Z,-2.37
2023-03-29T03:11:47.642Z,-2.38
2023-03-29T03:14:16.803Z,-2.38
2023-03-29T03:16:44.770Z,-2.38
2023-03-29T03:19:12.561Z,-2.37
2023-03-29T03:21:40.186Z,-2.40
2023-03-29T03:24:07.826Z,-2.39
2023-03-29T03:26:36.027Z,-2.42
2023-03-29T03:29:05.414Z,-2.45
2023-03-29T03:31:53.940Z,-2.48
2023-03-29T03:34:40.829Z,-2.54
2023-03-29T03:37:08.443Z,-2.55
2023-03-29T03:39:36.817Z,-2.57
2023-03-29T03:42:07.962Z,-2.60
2023-03-29T03:44:39.428Z,-2.64
2023-03-29T03:47:33.965Z,-2.69
2023-03-29T03:50:18.563Z,-2.73
2023-03-29T03:52:46.513Z,-2.77
2023-03-29T03:55:14.507Z,-2.79
2023-03-29T03:57:47.901Z,-2.81
2023-03-29T04:00:20.258Z,-2.84
2023-03-29T04:02:54.346Z,-2.87
2023-03-29T04:05:22.251Z,-2.87
2023-03-29T04:07:50.193Z,-2.88
2023-03-29T04:10:56.816Z,-2.91
2023-03-29T04:13:30.058Z,-2.95
2023-03-29T04:16:24.285Z,-2.91
2023-03-29T04:18:52.692Z,-2.92
2023-03-29T04:21:22.728Z,-2.92
2023-03-29T04:23:50.490Z,-2.93
2023-03-29T04:26:18.313Z,-2.94
2023-03-29T04:28:48.791Z,-2.95
2023-03-29T04:31:21.839Z,-2.96
2023-03-29T04:34:15.373Z,-2.97
2023-03-29T04:36:46.332Z,-2.97
2023-03-29T04:39:19.596Z,-2.96
2023-03-29T04:41:50.342Z,-2.95
2023-03-29T04:44:21.995Z,-2.94
2023-03-29T04:46:49.994Z,-2.92
2023-03-29T04:49:37.288Z,-2.91
2023-03-29T04:52:09.036Z,-2.89
2023-03-29T04:54:38.306Z,-2.84
2023-03-29T04:57:17.801Z,-2.67
2023-03-29T04:59:59.260Z,-2.46
2023-03-29T05:02:51.557Z,-2.26
2023-03-29T05:05:19.615Z,-2.25
2023-03-29T05:07:47.921Z,-2.28
2023-03-29T05:10:16.205Z,-2.27
2023-03-29T05:12:44.427Z,-2.17
2023-03-29T05:15:12.124Z,-2.11
2023-03-29T05:17:39.911Z,-2.10
2023-03-29T05:20:13.022Z,-2.07
2023-03-29T05:22:41.579Z,-2.03
2023-03-29T05:25:11.856Z,-1.97
2023-03-29T05:27:41.532Z,-1.92
2023-03-29T05:30:11.699Z,-1.84
2023-03-29T05:32:50.981Z,-1.76
2023-03-29T05:35:25.512Z,-1.71
2023-03-29T05:37:53.790Z,-1.56
2023-03-29T05:40:21.400Z,-1.44
2023-03-29T05:43:15.356Z,-1.31
2023-03-29T05:45:43.403Z,-1.19
2023-03-29T05:48:11.509Z,-1.10
2023-03-29T05:50:42.397Z,-1.02
2023-03-29T05:53:10.946Z,-0.95
2023-03-29T05:55:41.233Z,-0.86
2023-03-29T05:58:12.981Z,-0.78
2023-03-29T06:00:42.095Z,-0.68
2023-03-29T06:03:27.327Z,-0.49
2023-03-29T06:06:00.458Z,-0.48
2023-03-29T06:08:29.224Z,-0.44
2023-03-29T06:11:13.335Z,-0.38
2023-03-29T06:13:59.885Z,-0.30
2023-03-29T06:16:28.977Z,-0.23
2023-03-29T06:18:56.655Z,-0.16
2023-03-29T06:21:26.583Z,-0.07
2023-03-29T06:23:55.037Z,-0.00
2023-03-29T06:26:24.051Z,0.09
2023-03-29T06:28:52.721Z,0.20
2023-03-29T06:31:21.180Z,0.31
2023-03-29T06:33:51.141Z,0.43
2023-03-29T06:36:39.068Z,0.52
2023-03-29T06:39:07.138Z,0.60
2023-03-29T06:42:20.095Z,0.66
2023-03-29T06:45:16.894Z,0.70
2023-03-29T06:47:47.929Z,0.75
2023-03-29T06:50:17.242Z,0.86
2023-03-29T06:53:07.860Z,0.93
2023-03-29T06:55:36.284Z,1.03
2023-03-29T06:58:24.251Z,1.10
2023-03-29T07:00:53.865Z,1.20
2023-03-29T07:03:28.466Z,1.33
2023-03-29T07:06:03.560Z,1.44
2023-03-29T07:08:32.373Z,1.55
2023-03-29T07:11:03.710Z,1.64
2023-03-29T07:13:52.028Z,1.72
2023-03-29T07:16:21.830Z,1.81
2023-03-29T07:19:01.713Z,1.91
2023-03-29T07:21:49.295Z,1.98
2023-03-29T07:24:17.142Z,2.00
2023-03-29T07:27:00.289Z,2.05
2023-03-29T07:29:32.309Z,2.16
2023-03-29T07:32:00.247Z,2.31
2023-03-29T07:34:43.254Z,2.44
2023-03-29T07:37:17.239Z,2.55
2023-03-29T07:39:45.952Z,2.61
2023-03-29T07:42:36.943Z,2.66
2023-03-29T07:45:06.930Z,2.69
2023-03-29T07:47:38.374Z,2.71
2023-03-29T07:50:07.429Z,2.76
2023-03-29T07:52:36.762Z,2.84
2023-03-29T07:55:06.559Z,2.94
2023-03-29T07:57:54.899Z,2.98
2023-03-29T08:00:24.716Z,3.05
2023-03-29T08:03:07.340Z,3.16
2023-03-29T08:05:41.264Z,3.19
2023-03-29T08:08:15.306Z,3.19
2023-03-29T08:11:08.927Z,3.23
2023-03-29T08:13:53.819Z,3.30
2023-03-29T08:16:27.311Z,3.41
2023-03-29T08:19:08.619Z,3.46
2023-03-29T08:21:56.548Z,3.55
2023-03-29T08:24:25.268Z,3.70
2023-03-29T08:26:57.394Z,3.85
2023-03-29T08:29:27.048Z,3.96
2023-03-29T08:31:58.225Z,4.04
2023-03-29T08:34:25.948Z,4.16
2023-03-29T08:37:12.705Z,4.28
2023-03-29T08:39:44.199Z,4.45
2023-03-29T08:42:44.837Z,4.84
2023-03-29T08:45:27.036Z,5.10
2023-03-29T08:48:18.652Z,5.27
2023-03-29T08:50:52.842Z,5.56
2023-03-29T08:53:41.809Z,5.75
2023-03-29T08:56:24.968Z,5.97
2023-03-29T08:58:57.102Z,6.04
2023-03-29T09:01:30.231Z,5.95
2023-03-29T09:04:10.310Z,5.92
2023-03-29T09:06:48.662Z,5.82
2023-03-29T09:09:25.146Z,5.73
2023-03-29T09:12:04.386Z,5.62
2023-03-29T09:14:42.124Z,5.55
2023-03-29T09:17:19.311Z,5.49
2023-03-29T09:20:09.597Z,5.47
2023-03-29T09:23:12.353Z,5.43
2023-03-29T09:26:22.341Z,5.50
2023-03-29T09:29:02.846Z,5.56
2023-03-29T09:31:36.384Z,5.65
2023-03-29T09:34:18.663Z,5.75
2023-03-29T09:37:24.703Z,5.82
2023-03-29T09:39:53.390Z,5.87
2023-03-29T09:42:24.158Z,5.87
2023-03-29T09:44:54.618Z,5.93
2023-03-29T09:47:39.444Z,6.00
2023-03-29T09:50:27.784Z,6.10
2023-03-29T09:52:59.732Z,6.07
2023-03-29T09:55:31.250Z,6.00
2023-03-29T09:58:27.617Z,5.93
2023-03-29T10:01:00.860Z,5.89
2023-03-29T10:03:31.308Z,5.92
2023-03-29T10:06:08.594Z,5.98
2023-03-29T10:08:40.803Z,6.07
2023-03-29T10:11:18.346Z,6.16
2023-03-29T10:13:49.310Z,6.24
2023-03-29T10:16:38.388Z,6.29
2023-03-29T10:19:35.710Z,6.38
2023-03-29T10:22:14.152Z,6.46
2023-03-29T10:24:47.856Z,6.58
2023-03-29T10:27:19.828Z,6.69
2023-03-29T10:29:47.661Z,6.81
2023-03-29T10:32:36.760Z,6.87
2023-03-29T10:35:24.921Z,6.82
2023-03-29T10:37:56.388Z,6.81
2023-03-29T10:40:33.873Z,6.79
2023-03-29T10:43:12.901Z,6.84
2023-03-29T10:45:42.462Z,6.98
2023-03-29T10:48:12.998Z,7.04
2023-03-29T10:50:41.490Z,7.13
2023-03-29T10:53:26.207Z,7.21
2023-03-29T10:55:59.811Z,7.24
2023-03-29T10:58:56.691Z,7.27
2023-03-29T11:01:45.715Z,7.32
2023-03-29T11:04:23.941Z,7.29
2023-03-29T11:06:59.301Z,7.28
2023-03-29T11:10:04.407Z,7.34
2023-03-29T11:12:34.922Z,7.36
2023-03-29T11:15:14.647Z,7.42
2023-03-29T11:18:09.656Z,7.48
2023-03-29T11:20:55.877Z,7.52
2023-03-29T11:23:48.160Z,7.53
2023-03-29T11:26:22.520Z,7.56
2023-03-29T11:28:53.063Z,7.57
2023-03-29T11:31:31.088Z,7.63
2023-03-29T11:34:25.959Z,7.73
2023-03-29T11:36:59.379Z,7.87
2023-03-29T11:39:36.900Z,7.98
2023-03-29T11:42:11.845Z,8.07
2023-03-29T11:44:40.873Z,8.09
2023-03-29T11:47:13.323Z,8.04
2023-03-29T11:49:53.072Z,7.97
2023-03-29T11:52:47.202Z,7.90
2023-03-29T11:55:23.566Z,7.94
2023-03-29T11:57:59.989Z,8.00
2023-03-29T12:00:31.269Z,8.04
2023-03-29T12:03:34.416Z,8.10
2023-03-29T12:06:23.993Z,8.12
2023-03-29T12:09:05.358Z,8.20
2023-03-29T12:11:47.086Z,8.22
2023-03-29T12:14:26.717Z,8.25
2023-03-29T12:17:08.504Z,8.26
2023-03-29T12:19:43.707Z,8.28
2023-03-29T12:22:11.538Z,8.34
2023-03-29T12:24:45.884Z,8.38
2023-03-29T12:27:44.210Z,8.44
2023-03-29T12:30:39.988Z,8.53
2023-03-29T12:33:15.868Z,8.54
2023-03-29T12:36:47.480Z,8.51
2023-03-29T12:39:34.144Z,8.50
2023-03-29T12:42:22.789Z,8.51
2023-03-29T12:45:20.026Z,8.50
2023-03-29T12:47:50.983Z,8.52
2023-03-29T12:50:28.499Z,8.56
2023-03-29T12:53:33.402Z,8.62
2023-03-29T12:56:01.156Z,8.67
2023-03-29T12:58:42.908Z,8.75
2023-03-29T13:01:23.837Z,8.85
2023-03-29T13:04:00.448Z,8.91
2023-03-29T13:06:30.388Z,8.94
2023-03-29T13:09:31.122Z,8.97
2023-03-29T13:12:07.878Z,8.93
2023-03-29T13:14:37.524Z,8.86
2023-03-29T13:17:17.620Z,8.85
2023-03-29T13:20:19.978Z,8.92
2023-03-29T13:22:59.401Z,8.92
2023-03-29T13:25:41.170Z,8.93
2023-03-29T13:28:29.216Z,8.93
2023-03-29T13:31:17.533Z,8.91
2023-03-29T13:33:49.506Z,8.91
2023-03-29T13:36:23.369Z,8.96
2023-03-29T13:38:53.546Z,8.98
2023-03-29T13:41:31.199Z,8.97
2023-03-29T13:43:59.402Z,8.96
2023-03-29T13:46:41.059Z,8.96
2023-03-29T13:49:17.182Z,9.02
2023-03-29T13:52:12.591Z,9.06
2023-03-29T13:54:50.690Z,9.07
2023-03-29T13:57:41.798Z,9.08
2023-03-29T14:00:17.796Z,9.07
2023-03-29T14:02:57.576Z,9.05
2023-03-29T14:05:31.536Z,9.08
2023-03-29T14:08:06.823Z,9.11
2023-03-29T14:10:42.674Z,9.15
2023-03-29T14:13:14.876Z,9.20
2023-03-29T14:15:49.422Z,9.25
2023-03-29T14:18:19.906Z,9.27
2023-03-29T14:20:53.534Z,9.25
2023-03-29T14:23:26.197Z,9.25
2023-03-29T14:25:53.932Z,9.25
2023-03-29T14:28:24.399Z,9.26
2023-03-29T14:30:52.849Z,9.29
2023-03-29T14:33:34.359Z,9.30
2023-03-29T14:36:04.189Z,9.33
2023-03-29T14:38:32.250Z,9.35
2023-03-29T14:41:01.169Z,9.34
2023-03-29T14:43:31.910Z,9.38
2023-03-29T14:46:02.867Z,9.40
2023-03-29T14:48:33.138Z,9.43
2023-03-29T14:51:01.025Z,9.44
2023-03-29T14:53:31.961Z,9.46
2023-03-29T14:55:59.856Z,9.48
2023-03-29T14:58:36.875Z,9.43
2023-03-29T15:01:07.972Z,9.42
2023-03-29T15:03:43.966Z,9.41
2023-03-29T15:06:12.923Z,9.37
2023-03-29T15:08:48.232Z,9.38
2023-03-29T15:11:30.755Z,9.37
2023-03-29T15:14:03.208Z,9.36
2023-03-29T15:16:31.441Z,9.31
2023-03-29T15:19:01.545Z,9.26
2023-03-29T15:21:34.425Z,9.22
2023-03-29T15:24:03.579Z,9.13
2023-03-29T15:26:36.610Z,9.04
2023-03-29T15:29:13.840Z,8.96
2023-03-29T15:31:42.192Z,8.89
2023-03-29T15:34:14.790Z,8.85
2023-03-29T15:36:45.170Z,8.80
2023-03-29T15:39:14.388Z,8.74
2023-03-29T15:41:43.049Z,8.70
2023-03-29T15:44:11.241Z,8.68
2023-03-29T15:46:38.912Z,8.63
2023-03-29T15:49:11.150Z,8.58
2023-03-29T15:51:39.127Z,8.52
2023-03-29T15:54:07.783Z,8.49
2023-03-29T15:56:43.515Z,8.46
2023-03-29T15:59:12.325Z,8.41
2023-03-29T16:01:41.734Z,8.36
2023-03-29T16:04:16.566Z,8.32
2023-03-29T16:06:48.594Z,8.27
2023-03-29T16:09:16.872Z,8.22
2023-03-29T16:11:45.557Z,8.18
2023-03-29T16:14:23.156Z,8.15
2023-03-29T16:16:52.357Z,8.11
2023-03-29T16:19:20.141Z,8.09
2023-03-29T16:21:48.301Z,8.09
2023-03-29T16:24:19.597Z,8.09
2023-03-29T16:26:48.109Z,8.08
2023-03-29T16:29:18.736Z,8.07
2023-03-29T16:31:47.463Z,8.07
2023-03-29T16:34:16.371Z,8.07
2023-03-29T16:36:44.314Z,8.06
2023-03-29T16:39:15.992Z,8.05
2023-03-29T16:41:45.178Z,8.04
2023-03-29T16:44:18.603Z,8.02
2023-03-29T16:46:47.766Z,8.00
2023-03-29T16:49:18.073Z,7.97
2023-03-29T16:51:46.933Z,7.94
2023-03-29T16:54:17.106Z,7.89
2023-03-29T16:56:44.799Z,7.85
2023-03-29T16:59:12.625Z,7.83
2023-03-29T17:01:40.854Z,7.81
2023-03-29T17:04:09.017Z,7.78
2023-03-29T17:06:36.950Z,7.75
2023-03-29T17:09:05.261Z,7.72
2023-03-29T17:11:33.736Z,7.69
2023-03-29T17:14:01.622Z,7.64
2023-03-29T17:16:29.451Z,7.59
2023-03-29T17:19:00.415Z,7.54
2023-03-29T17:21:29.233Z,7.49
2023-03-29T17:23:57.303Z,7.44
2023-03-29T17:26:26.006Z,7.40
2023-03-29T17:28:53.944Z,7.35
2023-03-29T17:31:21.789Z,7.31
2023-03-29T17:33:52.194Z,7.27
2023-03-29T17:36:24.277Z,7.22
2023-03-29T17:38:52.275Z,7.17
2023-03-29T17:41:21.526Z,7.09
2023-03-29T17:43:50.959Z,7.03
2023-03-29T17:46:23.026Z,6.96
2023-03-29T17:48:51.256Z,6.89
2023-03-29T17:51:19.837Z,6.85
2023-03-29T17:53:47.490Z,6.80
2023-03-29T17:56:16.205Z,6.76
2023-03-29T17:58:44.005Z,6.73
2023-03-29T18:01:13.129Z,6.71
2023-03-29T18:03:41.370Z,6.69
2023-03-29T18:06:09.265Z,6.65
2023-03-29T18:08:37.519Z,6.62
2023-03-29T18:11:13.085Z,6.58
2023-03-29T18:13:41.026Z,6.54
2023-03-29T18:16:09.099Z,6.52
2023-03-29T18:18:38.493Z,6.52
2023-03-29T18:21:10.072Z,6.54
2023-03-29T18:23:43.101Z,6.54
2023-03-29T18:26:12.272Z,6.54
2023-03-29T18:28:40.438Z,6.53
2023-03-29T18:31:08.227Z,6.53
2023-03-29T18:33:36.359Z,6.54
2023-03-29T18:36:08.524Z,6.54
2023-03-29T18:38:40.654Z,6.54
2023-03-29T18:41:09.171Z,6.53
2023-03-29T18:43:38.802Z,6.52
2023-03-29T18:46:07.738Z,6.50
2023-03-29T18:48:38.960Z,6.49
2023-03-29T18:51:08.428Z,6.48
2023-03-29T18:53:37.520Z,6.45
2023-03-29T18:56:06.537Z,6.42
2023-03-29T18:58:35.006Z,6.40
2023-03-29T19:01:04.542Z,6.37
2023-03-29T19:03:34.418Z,6.36
2023-03-29T19:06:03.422Z,6.35
2023-03-29T19:08:32.976Z,6.33
2023-03-29T19:11:02.779Z,6.32
2023-03-29T19:13:30.459Z,6.31
2023-03-29T19:15:58.197Z,6.30
2023-03-29T19:18:26.400Z,6.28
2023-03-29T19:20:54.320Z,6.27
2023-03-29T19:23:27.246Z,6.27
2023-03-29T19:25:57.177Z,6.26
2023-03-29T19:28:24.999Z,6.25
2023-03-29T19:30:52.896Z,6.25
2023-03-29T19:33:20.786Z,6.23
2023-03-29T19:35:50.347Z,6.23
2023-03-29T19:38:19.220Z,6.21
2023-03-29T19:40:48.110Z,6.20
2023-03-29T19:43:20.718Z,6.19
2023-03-29T19:45:50.122Z,6.18
2023-03-29T19:48:23.687Z,6.18
2023-03-29T19:50:52.279Z,6.17
2023-03-29T19:53:19.945Z,6.15
2023-03-29T19:55:49.417Z,6.14
2023-03-29T19:58:17.081Z,6.13
2023-03-29T20:00:44.710Z,6.12
2023-03-29T20:03:14.078Z,6.11
2023-03-29T20:05:42.346Z,6.08
2023-03-29T20:08:09.949Z,6.07
2023-03-29T20:10:37.563Z,6.05
2023-03-29T20:13:06.637Z,6.02
2023-03-29T20:15:34.951Z,5.98
2023-03-29T20:18:03.497Z,5.95
2023-03-29T20:20:31.831Z,5.93
2023-03-29T20:23:04.689Z,5.90
2023-03-29T20:25:36.305Z,5.89
2023-03-29T20:28:04.735Z,5.86
2023-03-29T20:30:32.419Z,5.85
2023-03-29T20:33:00.228Z,5.84
2023-03-29T20:35:28.037Z,5.83
2023-03-29T20:37:56.120Z,5.81
2023-03-29T20:40:23.739Z,5.79
2023-03-29T20:42:51.443Z,5.77
2023-03-29T20:45:19.203Z,5.75
2023-03-29T20:47:57.590Z,5.76
2023-03-29T20:50:26.311Z,5.76
2023-03-29T20:52:54.660Z,5.78
2023-03-29T20:55:23.397Z,5.78
2023-03-29T20:57:54.143Z,5.80
2023-03-29T21:00:22.507Z,5.79
2023-03-29T21:02:50.312Z,5.80
2023-03-29T21:05:18.758Z,5.81
2023-03-29T21:07:48.003Z,5.79
2023-03-29T21:10:15.812Z,5.78
2023-03-29T21:12:43.445Z,5.77
2023-03-29T21:15:13.314Z,5.76
2023-03-29T21:17:41.357Z,5.74
2023-03-29T21:20:12.188Z,5.72
2023-03-29T21:22:40.630Z,5.69
2023-03-29T21:25:11.148Z,5.64
2023-03-29T21:27:38.771Z,5.61
2023-03-29T21:30:08.415Z,5.59
2023-03-29T21:32:37.256Z,5.57
2023-03-29T21:35:05.462Z,5.54
2023-03-29T21:37:33.058Z,5.52
2023-03-29T21:40:01.228Z,5.50
2023-03-29T21:42:28.820Z,5.46
2023-03-29T21:44:56.767Z,5.41
2023-03-29T21:47:24.412Z,5.37
2023-03-29T21:49:52.080Z,5.30
2023-03-29T21:52:20.292Z,5.26
2023-03-29T21:54:47.879Z,5.22
2023-03-29T21:57:15.672Z,5.19
2023-03-29T21:59:43.363Z,5.18
2023-03-29T22:02:11.070Z,5.18
2023-03-29T22:04:39.114Z,5.17
2023-03-29T22:07:08.230Z,5.18
2023-03-29T22:09:36.409Z,5.21
2023-03-29T22:12:04.782Z,5.24
2023-03-29T22:14:36.460Z,5.27
2023-03-29T22:17:08.308Z,5.32
2023-03-29T22:19:39.542Z,5.36
2023-03-29T22:22:13.557Z,5.41
2023-03-29T22:24:41.946Z,5.42
2023-03-29T22:27:11.058Z,5.45
2023-03-29T22:29:38.844Z,5.48
2023-03-29T22:32:06.901Z,5.50
2023-03-29T22:34:34.859Z,5.51
2023-03-29T22:37:02.478Z,5.54
2023-03-29T22:39:30.132Z,5.55
2023-03-29T22:41:57.814Z,5.57
2023-03-29T22:44:25.567Z,5.58
2023-03-29T22:46:53.166Z,5.60
2023-03-29T22:49:21.053Z,5.62
2023-03-29T22:51:49.478Z,5.64
2023-03-29T22:54:17.376Z,5.64
2023-03-29T22:56:45.205Z,5.66
2023-03-29T22:59:12.848Z,5.67
2023-03-29T23:01:40.544Z,5.67
2023-03-29T23:04:08.229Z,5.69
2023-03-29T23:06:35.950Z,5.70
2023-03-29T23:09:03.613Z,5.70
2023-03-29T23:11:31.699Z,5.71
2023-03-29T23:13:59.320Z,5.72
2023-03-29T23:16:26.997Z,5.72
2023-03-29T23:18:54.773Z,5.72
2023-03-29T23:21:22.950Z,5.73
2023-03-29T23:23:50.692Z,5.71
2023-03-29T23:26:18.608Z,5.69
2023-03-29T23:28:46.476Z,5.66
2023-03-29T23:31:18.372Z,5.62
2023-03-29T23:33:46.214Z,5.59
2023-03-29T23:36:16.302Z,5.56
2023-03-29T23:38:45.568Z,5.54
2023-03-29T23:41:13.821Z,5.51
2023-03-29T23:43:43.039Z,5.48
2023-03-29T23:46:14.169Z,5.47
2023-03-29T23:48:49.238Z,5.46
2023-03-29T23:51:18.863Z,5.42
2023-03-29T23:53:47.345Z,5.38
2023-03-29T23:56:15.232Z,5.37
2023-03-29T23:58:42.858Z,5.37
